createdAt,value
2017-03-19T00:00:04.774Z,0
2017-03-19T00:00:45.261Z,0
2017-03-19T00:01:25.733Z,0
2017-03-19T00:02:06.192Z,0
2017-03-19T00:02:46.650Z,0
2017-03-19T00:03:27.136Z,0
2017-03-19T00:04:07.633Z,0
2017-03-19T00:04:48.119Z,0
2017-03-19T00:05:28.613Z,0
2017-03-19T00:06:09.104Z,0
2017-03-19T00:06:49.590Z,0
2017-03-19T00:07:30.074Z,0
2017-03-19T00:08:10.565Z,0
2017-03-19T00:08:51.041Z,0
2017-03-19T00:09:31.516Z,0
2017-03-19T00:10:11.998Z,0
2017-03-19T00:10:52.527Z,0
2017-03-19T00:11:32.983Z,0
2017-03-19T00:12:13.476Z,0
2017-03-19T00:12:53.976Z,0
2017-03-19T00:13:34.453Z,0
2017-03-19T00:14:14.968Z,0
2017-03-19T00:14:55.438Z,0
2017-03-19T00:15:35.939Z,0
2017-03-19T00:16:16.428Z,0
2017-03-19T00:16:56.924Z,0
2017-03-19T00:17:37.411Z,0
2017-03-19T00:18:17.897Z,0
2017-03-19T00:18:58.409Z,0
2017-03-19T00:19:38.893Z,0
2017-03-19T00:20:19.384Z,0
2017-03-19T00:20:59.877Z,0
2017-03-19T00:21:40.368Z,0
2017-03-19T00:22:20.860Z,0
2017-03-19T00:23:01.362Z,0
2017-03-19T00:23:41.881Z,0
2017-03-19T00:24:22.339Z,0
2017-03-19T00:25:02.838Z,0
2017-03-19T00:25:43.325Z,0
2017-03-19T00:26:23.814Z,0
2017-03-19T00:27:04.312Z,0
2017-03-19T00:27:44.802Z,0
2017-03-19T00:28:25.292Z,0
2017-03-19T00:29:05.786Z,0
2017-03-19T00:29:46.274Z,0
2017-03-19T00:30:26.760Z,0
2017-03-19T00:31:07.258Z,0
2017-03-19T00:31:47.751Z,0
2017-03-19T00:32:28.236Z,0
2017-03-19T00:33:08.715Z,0
2017-03-19T00:33:49.225Z,0
2017-03-19T00:34:29.723Z,0
2017-03-19T00:35:10.251Z,0
2017-03-19T00:35:50.706Z,0
2017-03-19T00:36:31.811Z,0
2017-03-19T00:37:12.329Z,0
2017-03-19T00:37:52.817Z,0
2017-03-19T00:38:33.310Z,0
2017-03-19T00:39:13.815Z,0
2017-03-19T00:39:54.311Z,0
2017-03-19T00:40:34.804Z,0
2017-03-19T00:41:15.298Z,0
2017-03-19T00:41:55.788Z,0
2017-03-19T00:42:36.288Z,0
2017-03-19T00:43:16.771Z,0
2017-03-19T00:43:57.253Z,0
2017-03-19T00:44:37.753Z,0
2017-03-19T00:45:18.260Z,0
2017-03-19T00:45:58.742Z,0
2017-03-19T00:46:39.237Z,0
2017-03-19T00:47:19.726Z,0
2017-03-19T00:48:00.218Z,0
2017-03-19T00:48:40.714Z,0
2017-03-19T00:49:21.202Z,0
2017-03-19T00:50:01.719Z,0
2017-03-19T00:50:42.189Z,0
2017-03-19T00:51:22.679Z,0
2017-03-19T00:52:03.172Z,0
2017-03-19T00:52:43.666Z,0
2017-03-19T00:53:24.161Z,0
2017-03-19T00:54:04.649Z,0
2017-03-19T00:54:45.132Z,0
2017-03-19T00:55:25.631Z,0
2017-03-19T00:56:06.117Z,0
2017-03-19T00:56:46.620Z,0
2017-03-19T00:57:27.111Z,0
2017-03-19T00:58:07.604Z,0
2017-03-19T00:58:48.097Z,0
2017-03-19T00:59:28.585Z,0
2017-03-19T01:00:09.082Z,0
2017-03-19T01:00:49.577Z,0
2017-03-19T01:01:30.064Z,0
2017-03-19T01:02:10.559Z,0
2017-03-19T01:02:51.058Z,0
2017-03-19T01:03:31.545Z,0
2017-03-19T01:04:12.020Z,0
2017-03-19T01:04:52.514Z,0
2017-03-19T01:05:33.011Z,0
2017-03-19T01:06:13.498Z,0
2017-03-19T01:06:53.975Z,0
2017-03-19T01:07:34.475Z,0
2017-03-19T01:08:14.959Z,0
2017-03-19T01:08:55.452Z,0
2017-03-19T01:09:35.942Z,0
2017-03-19T01:10:16.432Z,0
2017-03-19T01:10:56.924Z,0
2017-03-19T01:11:37.415Z,0
2017-03-19T01:12:17.906Z,0
2017-03-19T01:12:58.404Z,0
2017-03-19T01:13:38.882Z,0
2017-03-19T01:14:19.376Z,0
2017-03-19T01:14:59.862Z,0
2017-03-19T01:15:40.345Z,0
2017-03-19T01:16:20.841Z,0
2017-03-19T01:17:01.319Z,0
2017-03-19T01:17:41.802Z,0
2017-03-19T01:18:22.293Z,0
2017-03-19T01:19:02.790Z,0
2017-03-19T01:19:43.279Z,0
2017-03-19T01:20:23.751Z,0
2017-03-19T01:21:04.250Z,0
2017-03-19T01:21:44.742Z,0
2017-03-19T01:22:25.230Z,0
2017-03-19T01:23:06.594Z,0
2017-03-19T01:23:47.087Z,0
2017-03-19T01:24:27.588Z,0
2017-03-19T01:25:08.082Z,0
2017-03-19T01:25:48.577Z,0
2017-03-19T01:26:29.071Z,0
2017-03-19T01:27:09.563Z,0
2017-03-19T01:27:50.051Z,0
2017-03-19T01:28:30.543Z,0
2017-03-19T01:29:11.030Z,0
2017-03-19T01:29:51.524Z,0
2017-03-19T01:30:32.017Z,0
2017-03-19T01:31:12.513Z,0
2017-03-19T01:31:53.004Z,0
2017-03-19T01:32:33.500Z,0
2017-03-19T01:33:13.978Z,0
2017-03-19T01:33:54.483Z,0
2017-03-19T01:34:34.981Z,0
2017-03-19T01:35:15.471Z,0
2017-03-19T01:35:55.964Z,0
2017-03-19T01:36:36.467Z,0
2017-03-19T01:37:16.957Z,0
2017-03-19T01:37:57.447Z,0
2017-03-19T01:38:37.939Z,0
2017-03-19T01:39:18.432Z,0
2017-03-19T01:39:58.914Z,0
2017-03-19T01:40:39.402Z,0
2017-03-19T01:41:19.900Z,0
2017-03-19T01:42:00.401Z,0
2017-03-19T01:42:40.883Z,0
2017-03-19T01:43:21.378Z,0
2017-03-19T01:44:01.880Z,0
2017-03-19T01:44:42.358Z,0
2017-03-19T01:45:22.852Z,0
2017-03-19T01:46:03.348Z,0
2017-03-19T01:46:43.844Z,0
2017-03-19T01:47:24.332Z,0
2017-03-19T01:48:04.827Z,0
2017-03-19T01:48:45.322Z,0
2017-03-19T01:49:25.806Z,0
2017-03-19T01:50:06.302Z,0
2017-03-19T01:50:46.796Z,0
2017-03-19T01:51:27.286Z,0
2017-03-19T01:52:07.788Z,0
2017-03-19T01:52:48.268Z,0
2017-03-19T01:53:28.758Z,0
2017-03-19T01:54:09.251Z,0
2017-03-19T01:54:49.753Z,0
2017-03-19T01:55:30.239Z,0
2017-03-19T01:56:10.729Z,0
2017-03-19T01:56:51.225Z,0
2017-03-19T01:57:31.717Z,0
2017-03-19T01:58:12.218Z,0
2017-03-19T01:58:52.689Z,0
2017-03-19T01:59:33.159Z,0
2017-03-19T02:00:13.653Z,0
2017-03-19T02:00:54.148Z,0
2017-03-19T02:01:34.637Z,0
2017-03-19T02:02:15.129Z,0
2017-03-19T02:02:55.625Z,0
2017-03-19T02:03:36.099Z,0
2017-03-19T02:04:16.586Z,0
2017-03-19T02:04:57.013Z,0
2017-03-19T02:05:37.487Z,0
2017-03-19T02:06:17.897Z,0
2017-03-19T02:08:15.530Z,0
2017-03-19T02:08:56.025Z,0
2017-03-19T02:09:36.512Z,0
2017-03-19T02:10:17.008Z,0
2017-03-19T02:10:57.502Z,0
2017-03-19T02:11:37.995Z,0
2017-03-19T02:12:19.320Z,0
2017-03-19T02:12:59.806Z,0
2017-03-19T02:13:40.286Z,0
2017-03-19T02:14:20.778Z,0
2017-03-19T02:15:01.273Z,0
2017-03-19T02:15:41.755Z,0
2017-03-19T02:16:22.259Z,0
2017-03-19T02:17:02.751Z,0
2017-03-19T02:17:43.251Z,0
2017-03-19T02:18:23.737Z,0
2017-03-19T02:19:04.219Z,0
2017-03-19T02:19:44.680Z,0
2017-03-19T02:20:25.139Z,0
2017-03-19T02:21:05.631Z,0
2017-03-19T02:21:46.121Z,0
2017-03-19T02:22:26.579Z,0
2017-03-19T02:23:07.059Z,0
2017-03-19T02:23:47.527Z,0
2017-03-19T02:24:27.961Z,0
2017-03-19T02:26:40.682Z,0
2017-03-19T02:27:21.171Z,0
2017-03-19T02:28:01.647Z,0
2017-03-19T02:28:42.124Z,0
2017-03-19T02:29:22.615Z,0
2017-03-19T02:30:03.096Z,0
2017-03-19T02:30:43.593Z,0
2017-03-19T02:31:24.088Z,0
2017-03-19T02:32:04.579Z,0
2017-03-19T02:32:45.069Z,0
2017-03-19T02:33:25.563Z,0
2017-03-19T02:34:06.044Z,0
2017-03-19T02:34:46.525Z,0
2017-03-19T02:35:27.011Z,0
2017-03-19T02:36:07.497Z,0
2017-03-19T02:36:47.985Z,0
2017-03-19T02:37:28.462Z,0
2017-03-19T02:38:08.990Z,0
2017-03-19T02:38:49.465Z,0
2017-03-19T02:39:29.945Z,0
2017-03-19T02:40:10.421Z,0
2017-03-19T02:40:50.908Z,0
2017-03-19T02:41:31.402Z,0
2017-03-19T02:42:11.911Z,0
2017-03-19T02:42:52.385Z,0
2017-03-19T02:43:32.883Z,0
2017-03-19T02:44:13.372Z,0
2017-03-19T02:44:53.867Z,0
2017-03-19T02:45:34.344Z,0
2017-03-19T02:46:14.840Z,0
2017-03-19T02:46:55.340Z,0
2017-03-19T02:47:35.801Z,0
2017-03-19T02:48:16.293Z,0
2017-03-19T02:48:56.784Z,0
2017-03-19T02:49:37.275Z,0
2017-03-19T02:50:17.767Z,0
2017-03-19T02:50:58.251Z,0
2017-03-19T02:51:38.731Z,0
2017-03-19T02:52:19.243Z,0
2017-03-19T02:52:59.738Z,0
2017-03-19T02:53:40.224Z,0
2017-03-19T02:54:20.726Z,0
2017-03-19T02:55:01.217Z,0
2017-03-19T02:55:41.707Z,0
2017-03-19T02:56:22.199Z,0
2017-03-19T02:57:02.698Z,0
2017-03-19T02:57:43.196Z,0
2017-03-19T02:58:23.684Z,0
2017-03-19T02:59:04.159Z,0
2017-03-19T02:59:44.624Z,0
2017-03-19T03:00:25.104Z,0
2017-03-19T03:01:05.605Z,0
2017-03-19T03:01:46.106Z,0
2017-03-19T03:02:26.611Z,0
2017-03-19T03:03:07.088Z,0
2017-03-19T03:03:47.583Z,0
2017-03-19T03:04:28.069Z,0
2017-03-19T03:05:08.563Z,0
2017-03-19T03:05:49.060Z,0
2017-03-19T03:06:29.548Z,0
2017-03-19T03:07:10.046Z,0
2017-03-19T03:07:50.540Z,0
2017-03-19T03:08:31.032Z,0
2017-03-19T03:09:11.526Z,0
2017-03-19T03:09:52.014Z,0
2017-03-19T03:10:32.507Z,0
2017-03-19T03:11:12.995Z,0
2017-03-19T03:11:53.480Z,0
2017-03-19T03:12:33.978Z,0
2017-03-19T03:13:14.479Z,0
2017-03-19T03:13:54.969Z,0
2017-03-19T03:14:35.461Z,0
2017-03-19T03:15:15.949Z,0
2017-03-19T03:15:56.445Z,0
2017-03-19T03:16:36.939Z,0
2017-03-19T03:17:17.437Z,0
2017-03-19T03:17:57.921Z,0
2017-03-19T03:18:38.401Z,0
2017-03-19T03:19:18.907Z,0
2017-03-19T03:19:59.400Z,0
2017-03-19T03:20:39.887Z,0
2017-03-19T03:21:20.385Z,0
2017-03-19T03:22:00.877Z,0
2017-03-19T03:22:41.373Z,0
2017-03-19T03:23:21.866Z,0
2017-03-19T03:24:02.354Z,0
2017-03-19T03:24:42.831Z,0
2017-03-19T03:25:23.333Z,0
2017-03-19T03:26:03.813Z,0
2017-03-19T03:26:44.918Z,0
2017-03-19T03:27:25.366Z,0
2017-03-19T03:28:05.858Z,0
2017-03-19T03:28:46.351Z,0
2017-03-19T03:29:26.826Z,0
2017-03-19T03:30:07.299Z,0
2017-03-19T03:30:47.771Z,0
2017-03-19T03:33:05.576Z,0
2017-03-19T03:33:46.068Z,0
2017-03-19T03:34:26.568Z,0
2017-03-19T03:35:07.064Z,0
2017-03-19T03:35:47.555Z,0
2017-03-19T03:36:28.060Z,0
2017-03-19T03:37:08.539Z,0
2017-03-19T03:37:49.017Z,0
2017-03-19T03:38:29.541Z,0
2017-03-19T03:39:09.990Z,0
2017-03-19T03:39:50.491Z,0
2017-03-19T03:40:30.981Z,0
2017-03-19T03:41:11.482Z,0
2017-03-19T03:41:51.968Z,0
2017-03-19T03:42:32.455Z,0
2017-03-19T03:43:12.948Z,0
2017-03-19T03:43:53.433Z,0
2017-03-19T03:44:33.922Z,0
2017-03-19T03:45:14.401Z,0
2017-03-19T03:45:54.883Z,0
2017-03-19T03:46:35.373Z,0
2017-03-19T03:47:15.857Z,0
2017-03-19T03:47:56.357Z,0
2017-03-19T03:48:36.846Z,0
2017-03-19T03:49:17.322Z,0
2017-03-19T03:49:57.849Z,0
2017-03-19T03:50:38.301Z,0
2017-03-19T03:51:18.772Z,0
2017-03-19T03:51:59.253Z,0
2017-03-19T03:52:39.727Z,0
2017-03-19T03:53:20.227Z,0
2017-03-19T03:54:00.710Z,0
2017-03-19T03:54:41.206Z,0
2017-03-19T03:55:21.673Z,0
2017-03-19T03:56:02.123Z,0
2017-03-19T03:56:43.283Z,0
2017-03-19T03:57:23.760Z,0
2017-03-19T03:58:04.257Z,0
2017-03-19T03:58:44.749Z,0
2017-03-19T03:59:25.237Z,0
2017-03-19T04:00:05.715Z,0
2017-03-19T04:00:46.218Z,0
2017-03-19T04:01:26.710Z,0
2017-03-19T04:02:07.200Z,0
2017-03-19T04:02:47.683Z,0
2017-03-19T04:03:28.188Z,0
2017-03-19T04:04:08.683Z,0
2017-03-19T04:04:49.169Z,0
2017-03-19T04:05:29.664Z,0
2017-03-19T04:06:10.166Z,0
2017-03-19T04:06:50.650Z,0
2017-03-19T04:07:31.143Z,0
2017-03-19T04:08:11.643Z,0
2017-03-19T04:08:52.118Z,0
2017-03-19T04:09:32.606Z,0
2017-03-19T04:10:13.097Z,0
2017-03-19T04:10:53.598Z,0
2017-03-19T04:11:34.086Z,0
2017-03-19T04:12:14.539Z,0
2017-03-19T04:12:54.990Z,0
2017-03-19T04:15:12.797Z,0
2017-03-19T04:15:53.283Z,0
2017-03-19T04:16:33.768Z,0
2017-03-19T04:17:14.264Z,0
2017-03-19T04:17:54.744Z,0
2017-03-19T04:18:35.237Z,0
2017-03-19T04:19:15.715Z,0
2017-03-19T04:19:56.204Z,0
2017-03-19T04:20:36.712Z,0
2017-03-19T04:21:17.173Z,0
2017-03-19T04:21:57.657Z,0
2017-03-19T04:22:38.140Z,0
2017-03-19T04:23:18.600Z,0
2017-03-19T04:23:59.102Z,0
2017-03-19T04:24:40.297Z,0
2017-03-19T04:25:20.779Z,0
2017-03-19T04:26:01.270Z,0
2017-03-19T04:26:41.760Z,0
2017-03-19T04:27:22.252Z,0
2017-03-19T04:28:02.744Z,0
2017-03-19T04:28:43.239Z,0
2017-03-19T04:29:23.716Z,0
2017-03-19T04:30:04.188Z,0
2017-03-19T04:30:44.687Z,0
2017-03-19T04:31:25.166Z,0
2017-03-19T04:32:05.653Z,0
2017-03-19T04:32:46.074Z,0
2017-03-19T04:33:26.552Z,0
2017-03-19T04:34:07.048Z,0
2017-03-19T04:34:47.537Z,0
2017-03-19T04:35:28.036Z,0
2017-03-19T04:36:08.518Z,0
2017-03-19T04:36:48.998Z,0
2017-03-19T04:37:29.499Z,0
2017-03-19T04:38:09.978Z,0
2017-03-19T04:38:50.492Z,0
2017-03-19T04:39:30.980Z,0
2017-03-19T04:40:11.469Z,0
2017-03-19T04:42:39.397Z,0
2017-03-19T04:43:19.889Z,0
2017-03-19T04:44:00.397Z,0
2017-03-19T04:44:40.915Z,0
2017-03-19T04:45:21.408Z,0
2017-03-19T04:46:01.869Z,0
2017-03-19T04:46:42.355Z,0
2017-03-19T04:47:22.850Z,0
2017-03-19T04:48:03.344Z,0
2017-03-19T04:48:43.840Z,0
2017-03-19T04:49:24.336Z,0
2017-03-19T04:50:04.809Z,0
2017-03-19T04:50:45.300Z,0
2017-03-19T04:51:25.795Z,0
2017-03-19T04:52:06.276Z,0
2017-03-19T04:52:46.761Z,0
2017-03-19T04:53:27.253Z,0
2017-03-19T04:54:07.761Z,0
2017-03-19T04:54:48.216Z,0
2017-03-19T04:55:28.692Z,0
2017-03-19T04:56:09.214Z,0
2017-03-19T04:56:49.676Z,0
2017-03-19T04:57:30.170Z,0
2017-03-19T04:58:10.662Z,0
2017-03-19T04:58:51.155Z,0
2017-03-19T04:59:31.641Z,0
2017-03-19T05:00:12.123Z,0
2017-03-19T05:00:52.627Z,0
2017-03-19T05:01:33.125Z,0
2017-03-19T05:02:13.622Z,0
2017-03-19T05:02:54.104Z,0
2017-03-19T05:03:34.603Z,0
2017-03-19T05:04:15.107Z,0
2017-03-19T05:04:55.585Z,0
2017-03-19T05:05:36.078Z,0
2017-03-19T05:06:16.581Z,0
2017-03-19T05:06:57.065Z,0
2017-03-19T05:07:37.525Z,0
2017-03-19T05:08:17.973Z,4
2017-03-19T05:10:30.687Z,4
2017-03-19T05:11:11.177Z,4
2017-03-19T05:11:51.637Z,4
2017-03-19T05:12:32.117Z,4
2017-03-19T05:13:12.595Z,4
2017-03-19T05:13:53.096Z,4
2017-03-19T05:14:33.585Z,4
2017-03-19T05:15:14.066Z,8
2017-03-19T05:15:54.559Z,4
2017-03-19T05:16:35.055Z,8
2017-03-19T05:17:15.500Z,12
2017-03-19T05:19:28.183Z,20
2017-03-19T05:20:08.670Z,20
2017-03-19T05:20:49.167Z,20
2017-03-19T05:21:29.663Z,24
2017-03-19T05:22:10.153Z,28
2017-03-19T05:22:50.666Z,32
2017-03-19T05:23:31.123Z,32
2017-03-19T05:24:11.609Z,36
2017-03-19T05:24:52.126Z,40
2017-03-19T05:25:32.609Z,40
2017-03-19T05:26:13.091Z,48
2017-03-19T05:26:53.580Z,44
2017-03-19T05:27:34.073Z,52
2017-03-19T05:28:14.557Z,56
2017-03-19T05:28:55.042Z,60
2017-03-19T05:29:35.528Z,56
2017-03-19T05:30:15.991Z,52
2017-03-19T05:30:56.489Z,56
2017-03-19T05:31:36.959Z,64
2017-03-19T05:33:54.752Z,68
2017-03-19T05:34:35.237Z,80
2017-03-19T05:35:15.714Z,88
2017-03-19T05:35:56.200Z,108
2017-03-19T05:36:36.693Z,112
2017-03-19T05:37:17.165Z,104
2017-03-19T05:37:57.650Z,92
2017-03-19T05:38:38.123Z,88
2017-03-19T05:39:18.658Z,84
2017-03-19T05:39:59.100Z,88
2017-03-19T05:40:39.583Z,100
2017-03-19T05:41:20.056Z,120
2017-03-19T05:42:00.548Z,124
2017-03-19T05:42:41.036Z,128
2017-03-19T05:43:21.517Z,120
2017-03-19T05:44:02.002Z,128
2017-03-19T05:44:42.492Z,144
2017-03-19T05:45:22.984Z,160
2017-03-19T05:46:03.467Z,168
2017-03-19T05:46:43.960Z,152
2017-03-19T05:47:24.438Z,152
2017-03-19T05:48:04.933Z,144
2017-03-19T05:48:45.424Z,148
2017-03-19T05:49:25.892Z,148
2017-03-19T05:50:06.391Z,156
2017-03-19T05:50:46.882Z,156
2017-03-19T05:51:27.404Z,136
2017-03-19T05:52:07.872Z,132
2017-03-19T05:52:48.359Z,132
2017-03-19T05:53:28.853Z,136
2017-03-19T05:54:09.347Z,144
2017-03-19T05:54:49.837Z,136
2017-03-19T05:55:30.341Z,132
2017-03-19T05:56:10.823Z,136
2017-03-19T05:56:51.313Z,148
2017-03-19T05:57:31.807Z,204
2017-03-19T05:58:12.301Z,200
2017-03-19T05:58:52.791Z,172
2017-03-19T05:59:33.278Z,196
2017-03-19T06:00:13.775Z,196
2017-03-19T06:00:54.256Z,168
2017-03-19T06:01:34.734Z,176
2017-03-19T06:02:15.230Z,184
2017-03-19T06:02:55.719Z,184
2017-03-19T06:03:36.203Z,192
2017-03-19T06:04:16.678Z,192
2017-03-19T06:04:57.179Z,204
2017-03-19T06:05:37.664Z,208
2017-03-19T06:06:18.140Z,244
2017-03-19T06:06:58.647Z,240
2017-03-19T06:07:39.120Z,188
2017-03-19T06:08:19.605Z,204
2017-03-19T06:09:00.102Z,196
2017-03-19T06:09:40.606Z,204
2017-03-19T06:10:21.077Z,204
2017-03-19T06:11:01.559Z,248
2017-03-19T06:11:42.051Z,272
2017-03-19T06:12:22.543Z,268
2017-03-19T06:13:02.987Z,280
2017-03-19T06:13:43.463Z,288
2017-03-19T06:14:23.921Z,308
2017-03-19T06:15:04.409Z,292
2017-03-19T06:15:44.905Z,268
2017-03-19T06:16:25.378Z,276
2017-03-19T06:17:05.878Z,320
2017-03-19T06:17:46.381Z,252
2017-03-19T06:18:26.866Z,300
2017-03-19T06:19:07.345Z,336
2017-03-19T06:19:47.836Z,324
2017-03-19T06:20:28.337Z,352
2017-03-19T06:21:08.833Z,336
2017-03-19T06:21:49.323Z,392
2017-03-19T06:22:29.805Z,424
2017-03-19T06:23:10.298Z,388
2017-03-19T06:23:50.799Z,364
2017-03-19T06:24:31.293Z,368
2017-03-19T06:25:11.788Z,372
2017-03-19T06:25:52.265Z,476
2017-03-19T06:26:32.769Z,500
2017-03-19T06:27:13.253Z,532
2017-03-19T06:27:53.738Z,544
2017-03-19T06:28:34.245Z,492
2017-03-19T06:29:14.742Z,528
2017-03-19T06:29:55.235Z,508
2017-03-19T06:30:35.733Z,524
2017-03-19T06:31:16.218Z,580
2017-03-19T06:31:56.709Z,624
2017-03-19T06:32:37.204Z,600
2017-03-19T06:33:17.696Z,664
2017-03-19T06:33:58.181Z,708
2017-03-19T06:34:38.675Z,740
2017-03-19T06:35:19.173Z,756
2017-03-19T06:35:59.683Z,764
2017-03-19T06:36:40.159Z,760
2017-03-19T06:37:20.653Z,752
2017-03-19T06:38:01.140Z,696
2017-03-19T06:38:41.636Z,740
2017-03-19T06:39:22.120Z,732
2017-03-19T06:40:02.599Z,804
2017-03-19T06:40:43.064Z,924
2017-03-19T06:43:16.079Z,996
2017-03-19T06:43:56.550Z,1044
2017-03-19T06:44:37.041Z,896
2017-03-19T06:45:17.529Z,960
2017-03-19T06:45:58.020Z,1096
2017-03-19T06:46:38.487Z,1096
2017-03-19T06:47:18.979Z,1052
2017-03-19T06:47:59.476Z,1040
2017-03-19T06:48:39.935Z,1156
2017-03-19T06:49:20.406Z,1116
2017-03-19T06:50:00.900Z,1324
2017-03-19T06:50:41.381Z,1224
2017-03-19T06:51:21.875Z,1164
2017-03-19T06:52:02.365Z,1480
2017-03-19T06:52:42.880Z,1984
2017-03-19T06:53:23.948Z,2352
2017-03-19T06:54:05.053Z,1980
2017-03-19T06:56:38.046Z,1580
2017-03-19T06:57:18.518Z,1380
2017-03-19T06:57:58.995Z,1764
2017-03-19T06:58:39.493Z,1620
2017-03-19T06:59:20.019Z,1572
2017-03-19T07:00:00.493Z,1500
2017-03-19T07:00:40.982Z,1356
2017-03-19T07:01:21.463Z,1464
2017-03-19T07:02:01.938Z,1824
2017-03-19T07:02:42.421Z,1616
2017-03-19T07:03:22.918Z,1768
2017-03-19T07:04:03.395Z,1860
2017-03-19T07:04:43.891Z,2444
2017-03-19T07:05:24.392Z,2164
2017-03-19T07:06:04.897Z,2228
2017-03-19T07:06:45.381Z,2416
2017-03-19T07:07:25.869Z,2060
2017-03-19T07:08:06.355Z,2732
2017-03-19T07:08:46.852Z,2980
2017-03-19T07:09:27.350Z,2944
2017-03-19T07:10:07.840Z,2644
2017-03-19T07:10:48.325Z,2972
2017-03-19T07:11:28.814Z,3304
2017-03-19T07:12:09.301Z,3520
2017-03-19T07:12:49.785Z,3548
2017-03-19T07:13:30.280Z,4008
2017-03-19T07:14:10.759Z,3564
2017-03-19T07:14:51.257Z,3640
2017-03-19T07:15:31.735Z,3624
2017-03-19T07:16:12.231Z,3148
2017-03-19T07:16:52.661Z,3144
2017-03-19T07:17:33.101Z,3172
2017-03-19T07:18:13.569Z,3836
2017-03-19T07:18:54.058Z,3512
2017-03-19T07:19:34.498Z,3048
2017-03-19T07:20:14.951Z,3780
2017-03-19T07:20:55.443Z,3428
2017-03-19T07:21:35.939Z,3628
2017-03-19T07:22:16.441Z,2984
2017-03-19T07:22:56.920Z,3048
2017-03-19T07:23:37.415Z,2824
2017-03-19T07:24:17.909Z,2776
2017-03-19T07:24:58.410Z,3148
2017-03-19T07:25:38.892Z,3176
2017-03-19T07:26:19.367Z,3252
2017-03-19T07:26:59.865Z,3320
2017-03-19T07:27:40.356Z,3628
2017-03-19T07:28:20.840Z,3512
2017-03-19T07:29:01.335Z,3580
2017-03-19T07:29:41.832Z,3328
2017-03-19T07:30:22.323Z,3508
2017-03-19T07:31:02.821Z,3868
2017-03-19T07:31:43.312Z,3256
2017-03-19T07:32:23.788Z,2800
2017-03-19T07:33:04.284Z,2368
2017-03-19T07:33:44.770Z,2496
2017-03-19T07:34:25.259Z,2268
2017-03-19T07:35:05.740Z,2372
2017-03-19T07:35:46.225Z,2416
2017-03-19T07:36:26.719Z,2224
2017-03-19T07:37:07.212Z,2120
2017-03-19T07:37:47.719Z,2112
2017-03-19T07:38:28.215Z,2416
2017-03-19T07:39:08.714Z,2772
2017-03-19T07:39:49.174Z,2820
2017-03-19T07:40:29.661Z,2928
2017-03-19T07:41:10.150Z,2936
2017-03-19T07:41:50.644Z,2980
2017-03-19T07:42:31.138Z,2828
2017-03-19T07:43:11.623Z,2776
2017-03-19T07:43:52.106Z,2616
2017-03-19T07:44:32.606Z,2460
2017-03-19T07:45:13.116Z,2152
2017-03-19T07:45:53.582Z,1908
2017-03-19T07:46:34.084Z,2104
2017-03-19T07:47:14.579Z,2248
2017-03-19T07:47:55.077Z,1924
2017-03-19T07:48:35.570Z,1732
2017-03-19T07:49:16.061Z,1760
2017-03-19T07:49:56.560Z,2292
2017-03-19T07:50:37.047Z,2892
2017-03-19T07:51:17.535Z,2452
2017-03-19T07:51:58.029Z,2120
2017-03-19T07:52:38.498Z,1876
2017-03-19T07:53:19.040Z,1888
2017-03-19T07:53:59.536Z,1936
2017-03-19T07:54:40.020Z,2100
2017-03-19T07:55:20.520Z,2064
2017-03-19T07:56:01.569Z,2240
2017-03-19T07:56:42.060Z,2088
2017-03-19T07:57:22.547Z,1808
2017-03-19T07:58:03.039Z,1764
2017-03-19T07:58:43.539Z,1796
2017-03-19T07:59:24.007Z,1740
2017-03-19T08:00:04.500Z,1788
2017-03-19T08:00:44.990Z,1808
2017-03-19T08:01:25.498Z,1632
2017-03-19T08:02:06.011Z,1556
2017-03-19T08:02:46.516Z,1604
2017-03-19T08:03:27.012Z,1856
2017-03-19T08:04:07.506Z,2208
2017-03-19T08:04:47.984Z,1880
2017-03-19T08:05:28.467Z,1876
2017-03-19T08:06:08.962Z,1968
2017-03-19T08:06:50.387Z,1916
2017-03-19T08:07:30.876Z,1848
2017-03-19T08:08:11.370Z,1800
2017-03-19T08:08:51.870Z,1800
2017-03-19T08:09:32.362Z,2004
2017-03-19T08:10:12.839Z,2072
2017-03-19T08:10:53.332Z,2008
2017-03-19T08:11:33.817Z,2104
2017-03-19T08:12:14.300Z,2360
2017-03-19T08:12:54.772Z,2516
2017-03-19T08:13:35.249Z,2364
2017-03-19T08:14:15.744Z,2088
2017-03-19T08:14:56.235Z,2312
2017-03-19T08:15:36.758Z,2388
2017-03-19T08:16:17.220Z,2076
2017-03-19T08:16:57.693Z,2256
2017-03-19T08:17:38.158Z,2348
2017-03-19T08:18:18.640Z,2524
2017-03-19T08:18:59.146Z,2288
2017-03-19T08:19:39.612Z,2072
2017-03-19T08:20:20.093Z,2052
2017-03-19T08:21:00.579Z,2136
2017-03-19T08:21:41.037Z,2284
2017-03-19T08:22:21.502Z,2292
2017-03-19T08:23:01.994Z,2388
2017-03-19T08:23:42.480Z,2528
2017-03-19T08:24:22.972Z,2704
2017-03-19T08:25:03.459Z,3052
2017-03-19T08:25:43.943Z,3472
2017-03-19T08:26:24.418Z,3472
2017-03-19T08:27:04.902Z,3384
2017-03-19T08:27:45.387Z,3408
2017-03-19T08:28:25.871Z,3604
2017-03-19T08:29:06.358Z,3100
2017-03-19T08:29:46.845Z,2848
2017-03-19T08:32:14.782Z,3012
2017-03-19T08:32:55.245Z,2900
2017-03-19T08:33:35.720Z,2972
2017-03-19T08:34:16.225Z,2688
2017-03-19T08:34:56.734Z,2612
2017-03-19T08:35:37.764Z,2568
2017-03-19T08:36:18.265Z,2648
2017-03-19T08:36:58.760Z,2444
2017-03-19T08:37:39.248Z,2228
2017-03-19T08:38:19.745Z,2044
2017-03-19T08:39:00.236Z,1840
2017-03-19T08:39:40.724Z,1684
2017-03-19T08:40:21.216Z,1732
2017-03-19T08:41:01.698Z,1776
2017-03-19T08:41:42.191Z,1708
2017-03-19T08:42:22.697Z,1632
2017-03-19T08:43:03.191Z,1704
2017-03-19T08:43:43.693Z,1732
2017-03-19T08:44:24.194Z,1696
2017-03-19T08:45:04.639Z,1716
2017-03-19T08:45:45.122Z,1768
2017-03-19T08:46:25.606Z,1688
2017-03-19T08:47:06.100Z,1620
2017-03-19T08:47:46.583Z,1640
2017-03-19T08:48:27.060Z,1700
2017-03-19T08:49:07.563Z,1792
2017-03-19T08:49:48.042Z,1952
2017-03-19T08:50:28.537Z,1880
2017-03-19T08:51:09.030Z,1836
2017-03-19T08:51:49.519Z,2028
2017-03-19T08:52:30.024Z,2176
2017-03-19T08:53:10.502Z,2084
2017-03-19T08:53:51.000Z,1988
2017-03-19T08:54:31.488Z,1992
2017-03-19T08:55:11.979Z,2100
2017-03-19T08:55:52.471Z,2148
2017-03-19T08:56:32.966Z,2152
2017-03-19T08:57:13.458Z,2236
2017-03-19T08:57:53.956Z,2376
2017-03-19T08:58:34.451Z,2404
2017-03-19T08:59:14.931Z,2260
2017-03-19T08:59:55.418Z,2280
2017-03-19T09:00:35.901Z,2372
2017-03-19T09:01:16.364Z,2392
2017-03-19T09:01:56.838Z,2444
2017-03-19T09:02:37.332Z,2480
2017-03-19T09:03:17.827Z,2588
2017-03-19T09:03:58.316Z,2596
2017-03-19T09:04:38.812Z,2632
2017-03-19T09:05:19.300Z,2724
2017-03-19T09:05:59.779Z,2620
2017-03-19T09:06:40.260Z,2568
2017-03-19T09:07:20.746Z,2636
2017-03-19T09:08:01.228Z,2556
2017-03-19T09:08:41.726Z,2460
2017-03-19T09:09:22.221Z,2360
2017-03-19T09:10:02.738Z,2244
2017-03-19T09:10:43.194Z,2124
2017-03-19T09:11:23.695Z,2132
2017-03-19T09:12:04.190Z,2328
2017-03-19T09:12:44.654Z,2456
2017-03-19T09:13:25.172Z,2392
2017-03-19T09:14:05.635Z,2472
2017-03-19T09:14:46.116Z,2696
2017-03-19T09:15:26.592Z,2864
2017-03-19T09:16:07.078Z,2900
2017-03-19T09:16:47.583Z,2788
2017-03-19T09:17:28.058Z,2748
2017-03-19T09:18:08.550Z,2816
2017-03-19T09:18:49.040Z,2908
2017-03-19T09:19:29.530Z,3088
2017-03-19T09:20:10.018Z,3252
2017-03-19T09:20:50.519Z,3248
2017-03-19T09:21:31.016Z,3072
2017-03-19T09:22:11.506Z,2940
2017-03-19T09:22:52.011Z,3000
2017-03-19T09:23:32.496Z,3164
2017-03-19T09:24:12.985Z,3180
2017-03-19T09:24:53.507Z,3020
2017-03-19T09:25:33.973Z,3184
2017-03-19T09:26:14.461Z,3236
2017-03-19T09:26:54.932Z,3036
2017-03-19T09:27:35.390Z,3116
2017-03-19T09:28:15.893Z,3172
2017-03-19T09:28:56.365Z,3464
2017-03-19T09:29:36.856Z,3580
2017-03-19T09:30:17.355Z,3532
2017-03-19T09:30:57.833Z,3352
2017-03-19T09:31:38.334Z,3416
2017-03-19T09:32:18.816Z,3148
2017-03-19T09:32:59.308Z,2964
2017-03-19T09:33:39.783Z,2852
2017-03-19T09:34:20.269Z,2692
2017-03-19T09:35:00.768Z,2648
2017-03-19T09:35:41.228Z,2480
2017-03-19T09:36:21.674Z,2416
2017-03-19T09:37:02.170Z,2560
2017-03-19T09:37:42.663Z,2540
2017-03-19T09:38:23.143Z,2544
2017-03-19T09:39:03.633Z,2620
2017-03-19T09:39:44.125Z,2700
2017-03-19T09:40:24.617Z,2840
2017-03-19T09:41:05.111Z,2884
2017-03-19T09:41:45.606Z,2860
2017-03-19T09:42:26.091Z,2928
2017-03-19T09:43:06.599Z,2948
2017-03-19T09:43:47.092Z,3020
2017-03-19T09:44:27.576Z,3136
2017-03-19T09:45:08.069Z,3128
2017-03-19T09:45:48.559Z,2940
2017-03-19T09:46:30.000Z,2988
2017-03-19T09:47:10.473Z,2996
2017-03-19T09:47:50.968Z,3104
2017-03-19T09:48:31.466Z,3224
2017-03-19T09:49:11.948Z,3268
2017-03-19T09:49:52.401Z,3256
2017-03-19T09:50:32.850Z,3248
2017-03-19T09:51:13.320Z,3296